Time;durP1;ratioP1;P1;durP2;ratioP2;P2;SDS_P1;SDS_P2;PMS_P1;PMS_P2;Temp;Humidity;BMP_temperature;BMP_pressure;BME280_temperature;BME280_humidity;BME280_pressure;Samples;Min_cycle;Max_cycle;Signal;HPM_P1;HPM_P2
2022/07/12 00:01:07;;;;;;;7.88;4.50;;;;;;;25.75;67.84;99577.25;4891853;29;20043;-85
2022/07/12 00:03:34;;;;;;;5.47;4.40;;;;;;;25.71;67.81;99572.72;4891242;29;20146;-84
2022/07/12 00:06:00;;;;;;;6.05;4.68;;;;;;;25.70;68.00;99576.50;4900306;29;20036;-84
2022/07/12 00:08:26;;;;;;;5.22;4.72;;;;;;;25.60;68.15;99574.69;4908325;29;20352;-86
2022/07/12 00:10:52;;;;;;;7.38;4.47;;;;;;;25.44;68.61;99574.78;4906647;29;20067;-83
2022/07/12 00:13:18;;;;;;;6.15;4.47;;;;;;;25.58;68.54;99571.50;4891676;29;20134;-84
2022/07/12 00:15:44;;;;;;;6.57;4.30;;;;;;;25.45;68.80;99578.25;4908892;29;20045;-84
2022/07/12 00:18:10;;;;;;;8.13;5.00;;;;;;;25.28;69.26;99575.97;4908392;29;20135;-85
2022/07/12 00:20:37;;;;;;;4.78;4.30;;;;;;;25.26;69.35;99572.78;4888575;29;20037;-83
2022/07/12 00:23:03;;;;;;;6.75;4.70;;;;;;;25.34;69.06;99572.16;4907146;29;20064;-84
2022/07/12 00:25:29;;;;;;;13.45;5.13;;;;;;;25.42;69.21;99585.03;4900961;29;20395;-84
2022/07/12 00:27:55;;;;;;;5.38;4.38;;;;;;;25.52;68.90;99578.78;4909795;29;20036;-84
2022/07/12 00:30:21;;;;;;;6.13;4.65;;;;;;;25.52;69.08;99576.09;4909305;29;20050;-85
2022/07/12 00:32:48;;;;;;;6.97;4.40;;;;;;;25.29;69.73;99582.94;4902686;29;20071;-84
2022/07/12 00:35:14;;;;;;;9.93;4.97;;;;;;;25.36;69.57;99586.16;4909726;29;20455;-84
2022/07/12 00:37:43;;;;;;;5.53;4.75;;;;;;;25.38;69.61;99578.59;4890218;29;20067;-84
2022/07/12 00:40:10;;;;;;;7.32;4.43;;;;;;;25.07;70.22;99584.16;4873012;29;20029;-86
2022/07/12 00:42:38;;;;;;;5.22;4.20;;;;;;;25.42;69.76;99581.50;4910001;29;20039;-85
2022/07/12 00:45:05;;;;;;;6.05;4.30;;;;;;;25.48;69.63;99581.22;4891521;29;20043;-85
2022/07/12 00:47:44;;;;;;;6.88;4.47;;;;;;;25.38;70.08;99575.91;4889910;29;20395;-86
2022/07/12 00:50:15;;;;;;;7.80;4.38;;;;;;;25.21;70.45;99574.41;4905283;29;20029;-87
2022/07/12 00:52:43;;;;;;;6.38;4.40;;;;;;;25.30;70.68;99574.63;4910916;29;20084;-84
2022/07/12 00:55:10;;;;;;;6.05;4.78;;;;;;;25.28;70.60;99570.59;4907889;29;20115;-85
2022/07/12 00:57:43;;;;;;;4.78;4.38;;;;;;;25.39;70.23;99556.03;4899765;29;20040;-85
2022/07/12 01:00:10;;;;;;;4.75;4.10;;;;;;;25.44;70.37;99553.28;4906149;29;20028;-84
2022/07/12 01:02:37;;;;;;;6.53;4.50;;;;;;;25.45;70.80;99556.75;4889757;29;20092;-86
2022/07/12 01:05:05;;;;;;;7.05;5.22;;;;;;;25.42;70.93;99558.16;4906183;29;20036;-84
2022/07/12 01:07:31;;;;;;;5.78;4.13;;;;;;;25.35;71.80;99557.66;4906343;29;20036;-84
2022/07/12 01:09:56;;;;;;;7.93;4.93;;;;;;;25.39;71.01;99564.09;4906924;29;20058;-85
2022/07/12 01:12:24;;;;;;;7.45;4.82;;;;;;;25.41;71.32;99550.34;4888876;29;20028;-84
2022/07/12 01:14:50;;;;;;;7.28;4.65;;;;;;;25.38;71.79;99559.78;4906438;29;20141;-84
2022/07/12 01:17:19;;;;;;;4.80;4.00;;;;;;;25.32;72.32;99556.34;4906730;29;20028;-83
2022/07/12 01:19:46;;;;;;;8.15;4.45;;;;;;;25.30;72.59;99561.19;4907331;29;20036;-84
2022/07/12 01:22:15;;;;;;;4.78;4.32;;;;;;;25.29;72.98;99564.16;4903884;29;20140;-83
2022/07/12 01:24:41;;;;;;;5.30;4.03;;;;;;;25.17;73.42;99565.31;4873217;29;20024;-84
2022/07/12 01:27:08;;;;;;;4.50;4.10;;;;;;;25.14;73.58;99578.50;4890146;29;20130;-84
2022/07/12 01:29:35;;;;;;;7.38;4.38;;;;;;;25.07;73.12;99578.81;4907597;29;20091;-83
2022/07/12 01:34:54;;;;;;;6.43;4.20;;;;;;;24.95;73.94;99569.19;4907844;29;20040;-83
2022/07/12 01:37:21;;;;;;;5.78;4.05;;;;;;;24.91;74.07;99570.03;4903134;29;20036;-83
2022/07/12 01:39:49;;;;;;;7.00;4.10;;;;;;;24.88;74.29;99574.06;4902713;29;20062;-83
2022/07/12 01:42:15;;;;;;;4.55;4.00;;;;;;;24.77;74.96;99559.13;4906865;29;20063;-83
2022/07/12 01:44:41;;;;;;;4.45;4.00;;;;;;;24.85;75.01;99557.72;4903734;29;20067;-83
2022/07/12 01:47:08;;;;;;;4.80;4.30;;;;;;;24.72;75.38;99554.53;4910254;29;20075;-85
2022/07/12 01:49:33;;;;;;;4.57;4.18;;;;;;;24.73;75.29;99560.69;4902931;29;20502;-85
2022/07/12 01:51:59;;;;;;;5.53;4.30;;;;;;;24.63;75.90;99557.00;4910811;29;20032;-86
2022/07/12 01:54:25;;;;;;;7.90;4.40;;;;;;;24.56;76.42;99556.47;4885044;29;20036;-84
2022/07/12 01:56:54;;;;;;;5.78;4.25;;;;;;;24.54;76.60;99564.00;4907466;29;20039;-84
2022/07/12 01:59:20;;;;;;;6.03;4.28;;;;;;;24.45;76.65;99555.72;4907253;29;20069;-84
2022/07/12 02:01:48;;;;;;;5.03;4.55;;;;;;;24.42;76.80;99568.91;4891701;29;20035;-85
2022/07/12 02:04:17;;;;;;;6.60;4.65;;;;;;;24.46;76.80;99568.03;4886129;29;20060;-84
2022/07/12 02:06:45;;;;;;;4.50;4.10;;;;;;;24.44;76.91;99569.41;4887789;29;20036;-84
2022/07/12 02:09:14;;;;;;;4.82;4.43;;;;;;;24.49;76.86;99580.13;4885969;29;20499;-85
2022/07/12 02:11:41;;;;;;;5.43;4.40;;;;;;;24.44;76.68;99578.25;4904092;29;20038;-84
2022/07/12 02:14:08;;;;;;;4.70;4.30;;;;;;;24.41;76.81;99589.53;4907844;29;20048;-85
2022/07/12 02:16:34;;;;;;;9.73;4.30;;;;;;;24.44;77.24;99582.84;4908388;29;20051;-86
2022/07/12 02:19:00;;;;;;;4.70;4.22;;;;;;;24.44;77.11;99580.16;4886675;29;20036;-85
2022/07/12 02:21:26;;;;;;;5.82;3.90;;;;;;;24.41;77.02;99592.22;4905627;29;20356;-86
2022/07/12 02:23:52;;;;;;;7.60;4.38;;;;;;;24.43;77.07;99594.63;4907303;29;20057;-86
2022/07/12 02:26:18;;;;;;;5.50;3.72;;;;;;;24.48;77.04;99578.53;4908584;29;20503;-85
2022/07/12 02:28:43;;;;;;;8.38;4.28;;;;;;;24.55;77.06;99581.69;4902697;29;20444;-83
2022/07/12 02:31:09;;;;;;;4.57;4.18;;;;;;;24.52;77.09;99576.88;4907726;29;20056;-84
2022/07/12 02:33:35;;;;;;;4.55;4.15;;;;;;;24.46;78.02;99586.03;4895680;29;20122;-85
2022/07/12 02:36:02;;;;;;;5.75;4.18;;;;;;;24.45;78.33;99587.13;4893198;29;20366;-85
2022/07/12 02:38:28;;;;;;;5.18;4.30;;;;;;;24.22;78.87;99587.44;4910480;29;20103;-84
2022/07/12 02:40:54;;;;;;;4.55;4.00;;;;;;;24.18;79.13;99582.91;4889716;29;20088;-85
2022/07/12 02:43:26;;;;;;;4.90;4.03;;;;;;;24.16;79.30;99591.22;4909005;29;20036;-86
2022/07/12 02:46:02;;;;;;;4.20;3.80;;;;;;;24.18;79.25;99585.59;4909771;29;20076;-86
2022/07/12 02:48:28;;;;;;;5.00;3.50;;;;;;;24.19;79.37;99584.53;4875654;29;20515;-84
2022/07/12 02:50:54;;;;;;;4.55;4.10;;;;;;;24.14;79.39;99587.19;4909099;29;20064;-84
2022/07/12 02:53:19;;;;;;;6.18;3.90;;;;;;;24.14;79.78;99581.81;4893012;29;20041;-85
2022/07/12 02:55:45;;;;;;;5.03;4.28;;;;;;;24.07;79.62;99577.56;4908748;29;20087;-84
2022/07/12 02:58:14;;;;;;;4.50;3.92;;;;;;;24.18;79.31;99572.19;4911560;29;20504;-85
2022/07/12 03:00:41;;;;;;;4.30;3.90;;;;;;;24.24;79.25;99576.44;4904796;29;20040;-84
2022/07/12 03:03:08;;;;;;;4.50;4.10;;;;;;;24.28;79.23;99577.50;4889504;29;20037;-83
2022/07/12 03:05:35;;;;;;;5.40;4.13;;;;;;;24.16;79.57;99559.03;4909534;29;20488;-85
2022/07/12 03:08:03;;;;;;;8.50;4.25;;;;;;;24.25;79.38;99560.06;4908811;29;20040;-84
2022/07/12 03:10:34;;;;;;;8.18;4.38;;;;;;;24.21;79.94;99568.97;4909111;29;20032;-83
2022/07/12 03:13:00;;;;;;;4.50;4.10;;;;;;;24.15;79.56;99554.75;4911640;29;20076;-84
2022/07/12 03:15:27;;;;;;;5.82;4.28;;;;;;;24.02;80.05;99564.16;4898860;29;20044;-84
2022/07/12 03:17:53;;;;;;;6.55;4.25;;;;;;;23.94;80.07;99556.63;4892071;29;20083;-83
2022/07/12 03:20:19;;;;;;;4.72;4.18;;;;;;;23.97;80.61;99556.09;4912508;29;20064;-83
2022/07/12 03:22:48;;;;;;;4.93;4.40;;;;;;;24.04;80.65;99551.28;4905656;29;20089;-84
2022/07/12 03:25:14;;;;;;;5.35;4.10;;;;;;;24.03;80.64;99557.72;4895537;29;20035;-84
2022/07/12 03:27:40;;;;;;;4.20;3.80;;;;;;;24.04;80.70;99562.03;4908653;29;20048;-83
2022/07/12 03:30:06;;;;;;;5.55;4.03;;;;;;;23.93;81.03;99563.06;4904502;29;20037;-84
2022/07/12 03:32:32;;;;;;;4.20;3.72;;;;;;;23.96;81.23;99565.19;4893517;29;20051;-84
2022/07/12 03:34:58;;;;;;;4.22;3.83;;;;;;;24.05;80.60;99574.34;4894288;29;20061;-83
2022/07/12 03:37:24;;;;;;;4.03;3.70;;;;;;;24.06;81.09;99569.78;4891269;29;20028;-85
2022/07/12 03:39:49;;;;;;;4.38;4.00;;;;;;;23.98;81.08;99565.75;4894607;29;20084;-85
2022/07/12 03:42:15;;;;;;;5.93;4.28;;;;;;;23.98;81.22;99568.44;4908203;29;20021;-84
2022/07/12 03:44:41;;;;;;;7.80;4.45;;;;;;;23.97;81.28;99569.50;4908041;29;20035;-85
2022/07/12 03:47:06;;;;;;;4.25;3.85;;;;;;;23.94;81.39;99564.69;4892195;29;20036;-84
2022/07/12 03:49:32;;;;;;;4.40;4.00;;;;;;;23.86;81.38;99547.25;4912168;29;20084;-83
2022/07/12 03:51:58;;;;;;;5.47;4.40;;;;;;;23.93;81.48;99555.84;4905801;29;20032;-84
2022/07/12 03:54:24;;;;;;;7.05;4.18;;;;;;;23.86;81.70;99554.50;4907249;29;20103;-84
2022/07/12 03:59:36;;;;;;;6.70;4.03;;;;;;;23.85;79.72;99548.34;4906739;29;20111;-85
2022/07/12 04:02:02;;;;;;;6.57;4.18;;;;;;;23.85;78.91;99534.94;4905050;29;20190;-84
2022/07/12 04:04:29;;;;;;;4.78;3.90;;;;;;;23.89;77.82;99537.88;4910616;29;20055;-83
2022/07/12 04:06:54;;;;;;;5.38;3.53;;;;;;;23.76;78.62;99531.22;4907001;29;20025;-85
2022/07/12 04:09:20;;;;;;;6.95;4.20;;;;;;;23.87;77.35;99521.28;4912684;29;20032;-84
2022/07/12 04:11:46;;;;;;;5.22;4.03;;;;;;;23.73;76.36;99508.41;4909311;29;20047;-85
2022/07/12 04:14:11;;;;;;;7.95;3.70;;;;;;;23.86;75.47;99511.63;4899307;29;20056;-85
2022/07/12 04:16:37;;;;;;;5.05;3.72;;;;;;;23.98;74.13;99509.47;4898804;29;20055;-85
2022/07/12 04:19:04;;;;;;;4.30;3.40;;;;;;;23.91;73.44;99508.91;4891326;29;20103;-85
2022/07/12 04:21:30;;;;;;;4.38;3.30;;;;;;;23.99;73.68;99505.69;4908449;29;20477;-85
2022/07/12 04:23:57;;;;;;;6.57;3.65;;;;;;;24.01;74.22;99503.56;4907866;29;20025;-86
2022/07/12 04:26:23;;;;;;;6.32;3.85;;;;;;;23.99;74.17;99499.53;4889059;29;20372;-84
2022/07/12 04:28:49;;;;;;;5.18;3.67;;;;;;;24.09;74.44;99489.59;4896168;29;20032;-85
2022/07/12 04:31:14;;;;;;;4.70;3.70;;;;;;;24.08;74.76;99487.22;4892188;29;20096;-84
2022/07/12 04:33:40;;;;;;;4.68;3.63;;;;;;;24.13;74.92;99484.50;4904555;29;20494;-85
2022/07/12 04:36:06;;;;;;;5.70;3.95;;;;;;;24.18;74.88;99499.78;4892957;29;20033;-86
2022/07/12 04:38:31;;;;;;;7.38;3.85;;;;;;;24.00;75.59;99490.41;4910217;29;20029;-86
2022/07/12 04:40:58;;;;;;;7.32;4.18;;;;;;;23.98;75.37;99476.47;4911410;29;20074;-85
2022/07/12 04:43:24;;;;;;;4.50;4.03;;;;;;;23.90;75.76;99491.22;4891507;29;20554;-85
2022/07/12 04:45:50;;;;;;;9.27;3.80;;;;;;;24.10;75.29;99506.50;4898703;29;20395;-87
2022/07/12 04:48:16;;;;;;;4.25;3.50;;;;;;;23.97;75.32;99505.16;4904621;29;20032;-86
2022/07/12 04:50:42;;;;;;;6.00;3.72;;;;;;;24.08;75.34;99514.03;4910067;29;20486;-85
2022/07/12 04:53:09;;;;;;;5.40;3.58;;;;;;;23.80;75.28;99535.75;4885487;29;20068;-85
2022/07/12 04:55:35;;;;;;;5.88;3.72;;;;;;;23.84;75.29;99546.72;4891462;29;20036;-85
2022/07/12 04:58:00;;;;;;;4.85;3.63;;;;;;;23.47;75.90;99542.47;4876850;29;20388;-85
2022/07/12 05:00:26;;;;;;;4.60;3.42;;;;;;;23.70;74.86;99534.97;4909573;29;20165;-86
2022/07/12 05:02:53;;;;;;;4.70;3.42;;;;;;;23.75;74.97;99543.00;4907292;29;20028;-85
2022/07/12 05:05:19;;;;;;;5.10;3.58;;;;;;;23.97;74.40;99556.09;4905747;29;20024;-85
2022/07/12 05:07:45;;;;;;;6.10;3.88;;;;;;;24.03;74.25;99562.28;4890181;29;20200;-85
2022/07/12 05:10:12;;;;;;;4.75;3.88;;;;;;;24.04;74.45;99553.97;4891339;29;20032;-84
2022/07/12 05:12:38;;;;;;;8.30;3.13;;;;;;;24.18;73.39;99542.69;4904284;29;20115;-86
2022/07/12 05:15:04;;;;;;;4.38;3.35;;;;;;;24.24;73.83;99557.69;4894001;29;20193;-85
2022/07/12 05:17:31;;;;;;;5.88;3.53;;;;;;;24.10;74.38;99550.19;4890411;29;20391;-84
2022/07/12 05:19:56;;;;;;;7.90;3.55;;;;;;;24.10;74.23;99536.00;4910032;29;20032;-85
2022/07/12 05:22:22;;;;;;;5.25;3.53;;;;;;;24.03;72.55;99548.88;4885842;29;20115;-84
2022/07/12 05:24:48;;;;;;;4.20;3.67;;;;;;;24.27;72.84;99538.34;4910371;29;20035;-84
2022/07/12 05:27:14;;;;;;;6.22;3.65;;;;;;;24.17;74.07;99523.09;4905219;29;20091;-85
2022/07/12 05:29:40;;;;;;;3.67;3.35;;;;;;;24.23;74.17;99522.00;4893705;29;20032;-85
2022/07/12 05:32:06;;;;;;;4.07;3.75;;;;;;;24.28;74.73;99534.59;4904824;29;20057;-84
2022/07/12 05:34:32;;;;;;;3.50;3.20;;;;;;;24.34;75.06;99544.22;4907565;29;20447;-84
2022/07/12 05:36:58;;;;;;;4.72;3.50;;;;;;;24.34;74.39;99533.50;4910809;29;20039;-84
2022/07/12 05:39:23;;;;;;;6.00;3.28;;;;;;;24.33;74.98;99529.19;4889832;29;20036;-84
2022/07/12 05:41:49;;;;;;;6.45;3.85;;;;;;;24.15;73.46;99551.25;4906051;29;20040;-83
2022/07/12 05:44:18;;;;;;;3.92;3.55;;;;;;;24.30;71.85;99543.16;4902072;29;20122;-83
2022/07/12 05:46:46;;;;;;;5.28;3.15;;;;;;;24.54;71.19;99537.16;4904580;29;20108;-86
2022/07/12 05:49:11;;;;;;;6.35;3.70;;;;;;;24.60;71.12;99541.44;4886173;29;20495;-90
2022/07/12 05:54:21;;;;;;;4.93;3.40;;;;;;;24.84;68.83;99548.03;4905601;29;20526;-86
2022/07/12 05:56:47;;;;;;;5.30;3.38;;;;;;;24.75;69.10;99527.16;4905662;29;20032;-86
2022/07/12 05:59:12;;;;;;;5.80;3.33;;;;;;;24.71;68.38;99530.63;4897846;29;20134;-85
2022/07/12 06:01:38;;;;;;;5.60;4.40;;;;;;;24.89;68.96;99535.41;4902326;29;20538;-85
2022/07/12 06:04:07;;;;;;;6.13;3.40;;;;;;;24.91;68.49;99538.59;4903844;29;20024;-81
2022/07/12 06:06:33;;;;;;;6.95;3.30;;;;;;;24.76;68.44;99541.38;4904525;29;20036;-83
2022/07/12 06:08:58;;;;;;;4.82;3.63;;;;;;;24.77;68.93;99551.06;4871413;29;20039;-83
2022/07/12 06:11:24;;;;;;;3.50;3.28;;;;;;;24.86;69.21;99554.75;4904475;29;20032;-83
2022/07/12 06:13:50;;;;;;;7.80;3.55;;;;;;;24.99;69.20;99563.28;4885149;29;20601;-85
2022/07/12 06:16:16;;;;;;;4.80;3.50;;;;;;;24.97;69.52;99554.72;4887223;29;20053;-83
2022/07/12 06:18:42;;;;;;;5.65;3.60;;;;;;;25.27;69.01;99548.31;4871923;29;21018;-84
2022/07/12 06:21:08;;;;;;;6.07;3.83;;;;;;;25.18;68.92;99560.72;4905652;29;20064;-84
2022/07/12 06:23:34;;;;;;;7.60;3.75;;;;;;;25.24;68.77;99560.41;4890775;29;20059;-84
2022/07/12 06:25:59;;;;;;;6.55;3.72;;;;;;;25.35;68.98;99561.16;4904153;29;20458;-84
2022/07/12 06:28:43;;;;;;;5.93;3.90;;;;;;;25.37;68.91;99552.81;4888298;29;20123;-82
2022/07/12 06:31:09;;;;;;;4.93;3.53;;;;;;;25.14;68.20;99540.88;4903075;29;20474;-86
2022/07/12 06:33:35;;;;;;;7.28;3.80;;;;;;;25.22;67.96;99553.72;4906808;29;20039;-86
2022/07/12 06:36:00;;;;;;;5.07;3.63;;;;;;;25.44;67.85;99553.28;4902363;29;20082;-85
2022/07/12 06:38:26;;;;;;;5.97;3.50;;;;;;;25.45;67.42;99544.16;4906246;29;20072;-83
2022/07/12 06:41:01;;;;;;;3.85;3.30;;;;;;;25.49;68.13;99561.34;4873814;29;20032;-85
2022/07/12 06:43:26;;;;;;;5.50;3.72;;;;;;;25.61;67.72;99565.56;4885859;29;20483;-87
2022/07/12 06:45:52;;;;;;;4.95;3.45;;;;;;;25.51;67.40;99569.13;4908377;29;20086;-86
2022/07/12 06:48:19;;;;;;;6.32;3.70;;;;;;;25.39;68.34;99556.81;4874695;29;20031;-84
2022/07/12 06:50:44;;;;;;;6.85;3.80;;;;;;;25.44;68.63;99545.22;4886285;29;20028;-84
2022/07/12 06:53:14;;;;;;;11.13;3.80;;;;;;;25.14;67.46;99557.78;4889824;29;20039;-85
2022/07/12 06:55:39;;;;;;;6.63;3.75;;;;;;;25.47;67.19;99560.00;4905102;29;20037;-83
2022/07/12 06:58:05;;;;;;;4.32;3.50;;;;;;;25.23;67.65;99558.81;4905932;29;20043;-86
2022/07/12 07:00:33;;;;;;;9.68;3.80;;;;;;;25.65;67.12;99569.28;4892199;29;20036;-85
2022/07/12 07:03:00;;;;;;;6.70;3.60;;;;;;;25.66;65.69;99565.50;4888870;29;20032;-84
2022/07/12 07:05:26;;;;;;;8.00;3.72;;;;;;;25.67;64.74;99565.22;4891310;29;20024;-84
2022/07/12 07:07:51;;;;;;;6.10;3.50;;;;;;;25.66;64.07;99560.94;4906158;29;20118;-84
2022/07/12 07:10:17;;;;;;;7.28;3.95;;;;;;;25.56;64.44;99571.75;4898587;29;20036;-87
2022/07/12 07:12:46;;;;;;;4.35;3.90;;;;;;;25.81;64.37;99578.00;4892542;29;20392;-84
2022/07/12 07:15:15;;;;;;;10.63;3.67;;;;;;;25.85;64.12;99562.91;4905624;29;20051;-85
2022/07/12 07:17:42;;;;;;;4.57;3.30;;;;;;;25.66;64.58;99563.63;4912505;29;21608;-83
2022/07/12 07:20:14;;;;;;;3.78;3.47;;;;;;;25.98;64.83;99564.13;4904944;29;20040;-84
2022/07/12 07:22:39;;;;;;;12.45;4.15;;;;;;;25.66;66.37;99565.50;4912480;29;20062;-81
2022/07/12 07:25:06;;;;;;;4.55;3.35;;;;;;;26.12;64.21;99560.75;4913847;29;20055;-84
2022/07/12 07:27:35;;;;;;;7.75;3.92;;;;;;;26.08;63.35;99560.53;4877417;29;20044;-86
2022/07/12 07:32:45;;;;;;;6.32;3.40;;;;;;;25.85;61.63;99572.84;4889076;29;20503;-84
2022/07/12 07:35:11;;;;;;;5.82;3.53;;;;;;;25.41;61.38;99574.53;4892571;29;20047;-86
2022/07/12 07:37:37;;;;;;;4.53;3.45;;;;;;;25.41;62.92;99563.78;4896917;29;20039;-86
2022/07/12 07:40:03;;;;;;;7.32;3.45;;;;;;;25.65;61.39;99564.72;4876810;29;20527;-86
2022/07/12 07:42:28;;;;;;;5.72;3.50;;;;;;;26.22;60.96;99564.16;4909762;29;20120;-87
2022/07/12 07:44:54;;;;;;;5.10;3.60;;;;;;;25.76;61.03;99581.56;4895151;29;20677;-87
2022/07/12 07:47:19;;;;;;;6.35;3.90;;;;;;;25.51;61.69;99569.91;4907153;29;20044;-86
2022/07/12 07:49:45;;;;;;;3.53;3.22;;;;;;;25.45;62.37;99559.44;4909173;29;20024;-85
2022/07/12 07:52:11;;;;;;;3.88;3.38;;;;;;;25.55;61.73;99567.47;4908134;29;20522;-86
2022/07/12 07:54:36;;;;;;;5.95;3.28;;;;;;;25.24;61.54;99557.75;4891888;29;20028;-85
2022/07/12 07:57:02;;;;;;;4.63;3.78;;;;;;;25.64;61.04;99563.06;4908665;29;20043;-85
2022/07/12 07:59:27;;;;;;;5.15;3.78;;;;;;;26.10;61.08;99564.53;4913317;29;20399;-87
2022/07/12 08:01:53;;;;;;;4.70;3.70;;;;;;;25.76;60.04;99565.41;4913008;29;20541;-85
2022/07/12 08:04:20;;;;;;;5.75;3.15;;;;;;;25.50;60.04;99565.63;4888204;29;20143;-84
2022/07/12 08:06:47;;;;;;;5.22;3.00;;;;;;;25.47;60.37;99558.13;4889198;29;20067;-80
2022/07/12 08:09:13;;;;;;;6.72;3.20;;;;;;;25.55;60.09;99558.59;4892926;29;20395;-82
2022/07/12 08:11:39;;;;;;;4.35;3.22;;;;;;;25.14;61.03;99571.22;4900475;29;20033;-81
2022/07/12 08:14:06;;;;;;;8.80;3.70;;;;;;;25.06;61.04;99569.13;4905406;29;20037;-81
2022/07/12 08:16:32;;;;;;;6.28;3.40;;;;;;;24.85;61.19;99593.44;4892592;29;20071;-81
2022/07/12 08:18:59;;;;;;;6.28;3.30;;;;;;;25.20;61.93;99590.81;4892225;29;20466;-81
2022/07/12 08:21:26;;;;;;;4.32;3.67;;;;;;;24.66;63.21;99585.97;4900042;29;20056;-81
2022/07/12 08:23:52;;;;;;;6.07;3.55;;;;;;;24.44;63.66;99596.25;4893888;29;20383;-82
2022/07/12 08:26:19;;;;;;;6.50;3.50;;;;;;;24.63;64.07;99593.75;4907806;29;20394;-82
2022/07/12 08:28:45;;;;;;;6.85;3.75;;;;;;;24.44;64.46;99598.94;4909785;29;20480;-81
2022/07/12 08:31:13;;;;;;;7.07;3.47;;;;;;;24.10;65.15;99606.50;4890146;29;20036;-81
2022/07/12 08:33:39;;;;;;;3.88;3.58;;;;;;;24.57;65.03;99600.22;4910616;29;20028;-81
2022/07/12 08:36:06;;;;;;;6.40;3.40;;;;;;;24.43;65.29;99600.00;4895828;29;20032;-81
2022/07/12 08:38:33;;;;;;;4.68;3.60;;;;;;;23.93;65.57;99601.41;4895517;29;20032;-81
2022/07/12 08:41:06;;;;;;;6.22;3.33;;;;;;;24.00;65.86;99609.19;4898449;29;20037;-81
2022/07/12 08:43:36;;;;;;;5.05;3.58;;;;;;;24.20;65.61;99602.22;4910714;29;20750;-81
2022/07/12 08:46:03;;;;;;;5.82;3.40;;;;;;;24.51;65.19;99597.56;4905399;29;20071;-84
2022/07/12 08:48:29;;;;;;;6.03;3.30;;;;;;;24.24;64.49;99609.44;4906008;29;20032;-83
2022/07/12 08:51:19;;;;;;;6.40;3.47;;;;;;;24.60;64.64;99605.84;4889440;29;20514;-84
2022/07/12 08:53:44;;;;;;;4.45;3.25;;;;;;;24.49;64.19;99598.91;4907776;29;20405;-86
2022/07/12 08:56:31;;;;;;;4.78;3.38;;;;;;;24.34;65.21;99608.59;4915465;29;20489;-82
2022/07/12 08:59:28;;;;;;;3.95;3.60;;;;;;;24.24;64.95;99614.00;4903872;29;20061;-82
2022/07/12 09:01:59;;;;;;;6.68;4.07;;;;;;;24.58;64.64;99604.50;4867406;29;20043;-82
2022/07/12 09:04:28;;;;;;;4.15;3.28;;;;;;;25.14;63.92;99608.81;4907344;29;20043;-81
2022/07/12 09:06:54;;;;;;;8.10;3.53;;;;;;;24.53;65.63;99608.00;4890632;29;20032;-81
2022/07/12 09:09:31;;;;;;;8.52;3.90;;;;;;;25.21;64.64;99622.78;4908234;29;20043;-81
2022/07/12 09:11:57;;;;;;;4.10;3.45;;;;;;;24.77;65.85;99626.22;4888014;29;20040;-82
2022/07/12 09:14:22;;;;;;;8.45;3.42;;;;;;;24.84;66.06;99637.47;4907925;29;20072;-82
2022/07/12 09:17:09;;;;;;;6.75;3.78;;;;;;;25.08;66.10;99642.19;4892853;29;20048;-81
2022/07/12 09:19:36;;;;;;;9.80;3.92;;;;;;;25.38;65.96;99641.19;4902243;29;20136;-82
2022/07/12 09:22:03;;;;;;;5.03;3.70;;;;;;;25.61;66.13;99644.28;4908908;29;20528;-81
2022/07/12 09:24:30;;;;;;;10.38;4.15;;;;;;;25.07;66.39;99640.56;4888687;29;20124;-81
2022/07/12 09:27:04;;;;;;;6.32;3.80;;;;;;;25.27;66.97;99639.66;4892402;29;20064;-82
2022/07/12 09:29:31;;;;;;;5.32;3.60;;;;;;;25.63;67.07;99638.66;4895222;29;20060;-81
2022/07/12 09:37:49;;;;;;;6.45;4.18;;;;;;;25.49;68.67;99663.47;4903485;29;20069;-80
2022/07/12 09:40:15;;;;;;;4.53;3.80;;;;;;;25.69;67.80;99653.66;4886563;29;20043;-81
2022/07/12 09:42:42;;;;;;;12.35;3.80;;;;;;;25.58;68.41;99647.53;4902166;29;20033;-81
2022/07/12 09:45:09;;;;;;;7.40;4.28;;;;;;;25.97;68.25;99656.66;4907183;29;20020;-81
2022/07/12 09:47:35;;;;;;;7.38;3.50;;;;;;;26.27;68.64;99665.56;4909766;29;20040;-82
2022/07/12 09:50:01;;;;;;;9.23;4.35;;;;;;;26.44;68.30;99661.63;4905829;29;20054;-82
2022/07/12 09:52:27;;;;;;;5.82;4.18;;;;;;;26.48;68.03;99665.34;4904297;29;20040;-82
2022/07/12 09:54:55;;;;;;;8.32;4.03;;;;;;;26.80;67.89;99663.91;4892150;29;20036;-82
2022/07/12 09:57:32;;;;;;;6.53;4.00;;;;;;;26.85;67.63;99661.19;4907285;29;20036;-82
2022/07/12 09:59:59;;;;;;;8.27;3.97;;;;;;;26.99;68.04;99668.56;4907537;29;20355;-81
2022/07/12 10:02:26;;;;;;;8.13;3.92;;;;;;;27.28;67.74;99670.31;4907175;29;20036;-82
2022/07/12 10:04:53;;;;;;;8.75;4.07;;;;;;;27.43;65.96;99670.13;4884648;29;20095;-81
2022/07/12 10:07:19;;;;;;;8.77;4.15;;;;;;;27.47;65.57;99668.44;4908278;29;20523;-81
2022/07/12 10:09:48;;;;;;;7.78;4.03;;;;;;;27.48;64.79;99678.13;4889838;29;20036;-81
2022/07/12 10:12:18;;;;;;;9.40;3.80;;;;;;;27.93;66.10;99676.94;4901464;29;20036;-81
2022/07/12 10:14:44;;;;;;;8.82;3.85;;;;;;;27.88;64.55;99677.00;4906518;29;20041;-81
2022/07/12 10:17:12;;;;;;;6.65;3.92;;;;;;;27.91;63.02;99677.22;4908128;29;20036;-80
2022/07/12 10:19:38;;;;;;;6.53;4.00;;;;;;;27.63;64.72;99687.09;4909299;29;20043;-81
2022/07/12 10:22:06;;;;;;;5.95;3.95;;;;;;;27.88;65.14;99703.97;4895577;29;20506;-80
2022/07/12 10:24:46;;;;;;;4.78;4.00;;;;;;;27.07;66.65;99706.44;4888799;29;20040;-80
2022/07/12 10:27:14;;;;;;;8.45;4.45;;;;;;;27.74;66.49;99702.06;4889940;29;20037;-81
2022/07/12 10:29:44;;;;;;;6.28;3.72;;;;;;;27.78;66.90;99694.97;4906773;29;20035;-81
2022/07/12 10:32:32;;;;;;;9.05;3.90;;;;;;;28.21;68.00;99695.91;4906384;29;20043;-81
2022/07/12 10:34:58;;;;;;;7.13;4.10;;;;;;;28.18;68.95;99688.41;4882666;29;20036;-81
2022/07/12 10:37:24;;;;;;;7.03;3.72;;;;;;;28.17;69.26;99686.81;4907527;29;20047;-81
2022/07/12 10:40:12;;;;;;;6.20;4.30;;;;;;;28.28;70.25;99682.81;4903874;29;20554;-81
2022/07/12 10:43:02;;;;;;;7.10;4.25;;;;;;;28.31;70.37;99684.94;4902008;29;20107;-81
2022/07/12 10:45:38;;;;;;;5.45;3.70;;;;;;;27.29;68.10;99688.09;4910275;29;20048;-81
2022/07/12 10:48:06;;;;;;;5.00;4.00;;;;;;;27.39;66.86;99685.28;4876532;29;20039;-81
2022/07/12 10:50:55;;;;;;;4.63;3.85;;;;;;;27.88;67.31;99693.19;4901212;29;20407;-81
2022/07/12 10:53:30;;;;;;;8.40;3.78;;;;;;;27.76;66.67;99690.94;4904496;29;20528;-81
2022/07/12 10:56:19;;;;;;;7.22;3.92;;;;;;;27.87;65.34;99697.78;4911731;29;20037;-81
2022/07/12 10:58:55;;;;;;;5.43;3.70;;;;;;;28.07;64.28;99693.94;4909588;29;20044;-81
2022/07/12 11:01:26;;;;;;;4.00;3.60;;;;;;;27.75;63.00;99692.88;4897482;29;20045;-81
2022/07/12 11:04:10;;;;;;;4.38;3.97;;;;;;;27.97;65.97;99702.22;4902675;29;20119;-81
2022/07/12 11:06:38;;;;;;;4.38;3.95;;;;;;;28.49;65.59;99695.94;4912345;29;20039;-81
2022/07/12 11:09:07;;;;;;;4.72;3.75;;;;;;;28.79;67.26;99696.47;4872224;29;20040;-81
2022/07/12 11:11:49;;;;;;;4.72;3.72;;;;;;;29.26;65.35;99685.53;4910618;29;20028;-81
2022/07/12 11:14:26;;;;;;;6.32;3.70;;;;;;;29.59;65.65;99682.66;4892704;29;20032;-82
2022/07/12 11:16:54;;;;;;;8.13;4.15;;;;;;;28.77;63.64;99690.56;4908267;29;20479;-82
2022/07/12 11:19:30;;;;;;;6.53;3.83;;;;;;;29.46;64.01;99695.09;4907194;29;20033;-82
2022/07/12 11:21:57;;;;;;;7.65;4.10;;;;;;;29.78;62.87;99687.88;4896633;29;20431;-81
2022/07/12 11:24:25;;;;;;;9.85;4.20;;;;;;;29.83;63.57;99680.72;4895669;29;20401;-82
2022/07/12 11:26:52;;;;;;;10.13;3.80;;;;;;;29.84;62.23;99680.44;4892382;29;20032;-82
2022/07/12 11:29:18;;;;;;;4.40;3.83;;;;;;;29.98;62.93;99683.06;4898412;29;20530;-81
2022/07/12 11:31:46;;;;;;;4.93;3.80;;;;;;;30.05;61.42;99682.66;4898635;29;20043;-82
2022/07/12 11:34:23;;;;;;;4.68;3.83;;;;;;;29.98;60.28;99687.69;4905848;29;20036;-81
2022/07/12 11:36:53;;;;;;;5.07;3.95;;;;;;;30.16;61.24;99694.00;4912803;29;20045;-81
2022/07/12 11:39:52;;;;;;;;;;;;;;;;;;;;;
2022/07/12 11:42:18;;;;;;;6.63;4.00;;;;;;;29.69;59.10;99699.72;4887681;29;20044;-82
2022/07/12 11:44:53;;;;;;;7.10;3.70;;;;;;;30.09;59.47;99690.97;4909626;29;20080;-81
2022/07/12 11:47:21;;;;;;;6.00;3.70;;;;;;;29.20;56.65;99692.94;4897001;29;20119;-81
2022/07/12 11:49:50;;;;;;;6.22;3.72;;;;;;;29.95;57.24;99696.41;4909375;29;20391;-81
2022/07/12 11:52:21;;;;;;;7.28;4.00;;;;;;;29.70;56.70;99694.03;4892155;29;20028;-81
2022/07/12 11:54:50;;;;;;;4.40;3.60;;;;;;;29.09;55.00;99702.38;4909326;29;20043;-82